UAE451 OMDB-OKKK
Flight info
| Callsign | UAE451 |
|---|---|
| Flight time | 1h 32m |
| Altitude | 38000 |
| Route | RIDAP M557 TUMAK M600 KUMBO/N0446F240 A453 DEBTI |
| Aircraft | B77W/H-SDE1E2E3FGHIJ2J3J4J5M1RWXY/LB1D1 |
Departure
| Time | 2026-04-26 16:42 |
|---|---|
| Airport | Dubai International Airport (OMDB) |
Arrival
| Time | 2026-04-26 18:15 |
|---|---|
| Airport | Kuwait International Airport (OKKK) |
| Time | Latitude | Longitude | Altitude | Speed | Heading |
|---|---|---|---|---|---|
| 2026-04-26 14:44 | 25.24889 | 55.35887 | 30 ft | 0 kts | 31° |
| 2026-04-26 16:12 | 25.24888 | 55.35886 | -1 ft | 0 kts | 32° |
| 2026-04-26 16:12 | 25.24886 | 55.35885 | -1 ft | 0 kts | 31° |
| 2026-04-26 16:21 | 25.24885 | 55.35885 | -1 ft | 0 kts | 31° |
| 2026-04-26 16:21 | 25.24884 | 55.35884 | -1 ft | 0 kts | 30° |
| 2026-04-26 16:21 | 25.24882 | 55.35883 | -1 ft | 0 kts | 30° |
| 2026-04-26 16:21 | 25.24881 | 55.35882 | 26 ft | 1 kts | 29° |
| 2026-04-26 16:22 | 25.24874 | 55.35878 | 31 ft | 2 kts | 28° |
| 2026-04-26 16:22 | 25.24860 | 55.35870 | 28 ft | 2 kts | 21° |
| 2026-04-26 16:22 | 25.24844 | 55.35865 | 32 ft | 2 kts | 11° |
| 2026-04-26 16:22 | 25.24828 | 55.35863 | 29 ft | 2 kts | 353° |
| 2026-04-26 16:23 | 25.24812 | 55.35868 | 32 ft | 2 kts | 325° |
| 2026-04-26 16:23 | 25.24800 | 55.35880 | 32 ft | 2 kts | 306° |
| 2026-04-26 16:23 | 25.24796 | 55.35886 | 32 ft | 0 kts | 303° |
| 2026-04-26 16:25 | 25.24801 | 55.35879 | 32 ft | 7 kts | 303° |
| 2026-04-26 16:25 | 25.24869 | 55.35762 | 31 ft | 32 kts | 305° |
| 2026-04-26 16:25 | 25.25012 | 55.35533 | 29 ft | 35 kts | 303° |
| 2026-04-26 16:26 | 25.25096 | 55.35381 | 28 ft | 11 kts | 301° |
| 2026-04-26 16:26 | 25.25134 | 55.35314 | 29 ft | 11 kts | 303° |
| 2026-04-26 16:26 | 25.25176 | 55.35245 | 31 ft | 11 kts | 306° |
| 2026-04-26 16:26 | 25.25222 | 55.35177 | 29 ft | 11 kts | 304° |
| 2026-04-26 16:27 | 25.25280 | 55.35075 | 30 ft | 23 kts | 302° |
| 2026-04-26 16:27 | 25.25363 | 55.34938 | 32 ft | 19 kts | 311° |
| 2026-04-26 16:27 | 25.25458 | 55.34900 | 31 ft | 13 kts | 9° |
| 2026-04-26 16:27 | 25.25541 | 55.34943 | 29 ft | 13 kts | 29° |
| 2026-04-26 16:28 | 25.25584 | 55.34971 | 29 ft | 0 kts | 31° |
| 2026-04-26 16:28 | 25.25627 | 55.34999 | 29 ft | 18 kts | 31° |
| 2026-04-26 16:28 | 25.25663 | 55.35023 | 29 ft | 4 kts | 31° |
| 2026-04-26 16:29 | 25.25708 | 55.35053 | 28 ft | 14 kts | 31° |
| 2026-04-26 16:29 | 25.25727 | 55.35066 | 29 ft | 0 kts | 32° |
| 2026-04-26 16:29 | 25.25742 | 55.35083 | 32 ft | 8 kts | 51° |
| 2026-04-26 16:29 | 25.25745 | 55.35143 | 29 ft | 0 kts | 93° |
| 2026-04-26 16:30 | 25.25764 | 55.35198 | 31 ft | 14 kts | 52° |
| 2026-04-26 16:30 | 25.25881 | 55.35286 | 26 ft | 27 kts | 27° |
| 2026-04-26 16:30 | 25.25982 | 55.35349 | 27 ft | 1 kts | 31° |
| 2026-04-26 16:32 | 25.25984 | 55.35353 | 27 ft | 2 kts | 47° |
| 2026-04-26 16:32 | 25.26006 | 55.35448 | 27 ft | 18 kts | 85° |
| 2026-04-26 16:32 | 25.25975 | 55.35578 | 28 ft | 3 kts | 122° |
| 2026-04-26 16:33 | 25.25940 | 55.35644 | 28 ft | 23 kts | 122° |
| 2026-04-26 16:33 | 25.25823 | 55.35852 | 28 ft | 35 kts | 121° |
| 2026-04-26 16:33 | 25.25699 | 55.36077 | 28 ft | 34 kts | 121° |
| 2026-04-26 16:34 | 25.25575 | 55.36296 | 29 ft | 33 kts | 122° |
| 2026-04-26 16:34 | 25.25467 | 55.36485 | 29 ft | 25 kts | 122° |
| 2026-04-26 16:34 | 25.25381 | 55.36637 | 29 ft | 21 kts | 122° |
| 2026-04-26 16:34 | 25.25306 | 55.36771 | 29 ft | 20 kts | 122° |
| 2026-04-26 16:35 | 25.25225 | 55.36916 | 29 ft | 24 kts | 122° |
| 2026-04-26 16:35 | 25.25139 | 55.37070 | 30 ft | 24 kts | 122° |
| 2026-04-26 16:35 | 25.25053 | 55.37224 | 30 ft | 24 kts | 121° |
| 2026-04-26 16:35 | 25.24967 | 55.37379 | 30 ft | 24 kts | 121° |
| 2026-04-26 16:36 | 25.24881 | 55.37531 | 30 ft | 23 kts | 122° |
| 2026-04-26 16:36 | 25.24865 | 55.37559 | 30 ft | 4 kts | 122° |
| 2026-04-26 16:36 | 25.24834 | 55.37613 | 30 ft | 16 kts | 122° |
| 2026-04-26 16:36 | 25.24739 | 55.37780 | 30 ft | 12 kts | 122° |
| 2026-04-26 16:37 | 25.24726 | 55.37802 | 29 ft | 0 kts | 122° |
| 2026-04-26 16:37 | 25.24712 | 55.37827 | 29 ft | 11 kts | 122° |
| 2026-04-26 16:38 | 25.24667 | 55.37920 | 29 ft | 10 kts | 98° |
| 2026-04-26 16:38 | 25.24674 | 55.37945 | 30 ft | 0 kts | 52° |
| 2026-04-26 16:38 | 25.24675 | 55.37946 | 30 ft | 0 kts | 52° |
| 2026-04-26 16:40 | 25.24683 | 55.37955 | 30 ft | 2 kts | 46° |
| 2026-04-26 16:40 | 25.24698 | 55.37969 | 30 ft | 6 kts | 39° |
| 2026-04-26 16:40 | 25.24759 | 55.38013 | 34 ft | 12 kts | 21° |
| 2026-04-26 16:41 | 25.24831 | 55.37983 | 35 ft | 12 kts | 306° |
| 2026-04-26 16:41 | 25.24862 | 55.37929 | 35 ft | 0 kts | 302° |
| 2026-04-26 16:41 | 25.24868 | 55.37918 | 35 ft | 3 kts | 302° |
| 2026-04-26 16:41 | 25.24948 | 55.37775 | 35 ft | 67 kts | 302° |
| 2026-04-26 16:42 | 25.25429 | 55.36904 | 38 ft | 197 kts | 302° |
| 2026-04-26 16:42 | 25.26277 | 55.35438 | 1106 ft | 231 kts | 302° |
| 2026-04-26 16:42 | 25.27148 | 55.33927 | 2575 ft | 235 kts | 302° |
| 2026-04-26 16:42 | 25.27995 | 55.32370 | 3380 ft | 241 kts | 301° |
| 2026-04-26 16:43 | 25.28883 | 55.30740 | 3921 ft | 252 kts | 302° |
| 2026-04-26 16:43 | 25.29805 | 55.29064 | 4000 ft | 258 kts | 303° |
| 2026-04-26 16:43 | 25.30810 | 55.27435 | 4006 ft | 255 kts | 306° |
| 2026-04-26 16:43 | 25.31836 | 55.25843 | 4017 ft | 253 kts | 306° |
| 2026-04-26 16:44 | 25.32858 | 55.24253 | 4314 ft | 255 kts | 306° |
| 2026-04-26 16:44 | 25.33882 | 55.22658 | 4785 ft | 254 kts | 306° |
| 2026-04-26 16:44 | 25.34907 | 55.21051 | 5652 ft | 258 kts | 306° |
| 2026-04-26 16:44 | 25.35722 | 55.19290 | 6477 ft | 262 kts | 284° |
| 2026-04-26 16:45 | 25.35840 | 55.17276 | 7326 ft | 265 kts | 269° |
| 2026-04-26 16:45 | 25.35763 | 55.15226 | 8160 ft | 269 kts | 269° |
| 2026-04-26 16:45 | 25.35678 | 55.13153 | 9081 ft | 271 kts | 268° |
| 2026-04-26 16:45 | 25.35592 | 55.11050 | 9950 ft | 275 kts | 268° |
| 2026-04-26 16:46 | 25.35507 | 55.08936 | 10840 ft | 277 kts | 268° |
| 2026-04-26 16:46 | 25.35424 | 55.06799 | 11758 ft | 281 kts | 267° |
| 2026-04-26 16:46 | 25.35342 | 55.04627 | 12777 ft | 283 kts | 267° |
| 2026-04-26 16:46 | 25.35260 | 55.02427 | 13783 ft | 288 kts | 267° |
| 2026-04-26 16:47 | 25.35177 | 55.00203 | 14494 ft | 292 kts | 267° |
| 2026-04-26 16:47 | 25.35095 | 54.97952 | 14868 ft | 294 kts | 266° |
| 2026-04-26 16:47 | 25.35011 | 54.95661 | 14865 ft | 300 kts | 266° |
| 2026-04-26 16:47 | 25.34926 | 54.93356 | 14874 ft | 300 kts | 266° |
| 2026-04-26 16:48 | 25.34871 | 54.91069 | 14867 ft | 296 kts | 272° |
| 2026-04-26 16:48 | 25.35302 | 54.88855 | 14880 ft | 296 kts | 287° |
| 2026-04-26 16:48 | 25.35954 | 54.86686 | 14870 ft | 299 kts | 287° |
| 2026-04-26 16:48 | 25.36614 | 54.84494 | 14882 ft | 301 kts | 287° |
| 2026-04-26 16:49 | 25.37268 | 54.82282 | 14881 ft | 303 kts | 286° |
| 2026-04-26 16:49 | 25.37916 | 54.80060 | 14883 ft | 305 kts | 286° |
| 2026-04-26 16:49 | 25.38561 | 54.77827 | 14878 ft | 305 kts | 286° |
| 2026-04-26 16:49 | 25.39198 | 54.75602 | 14867 ft | 302 kts | 286° |
| 2026-04-26 16:50 | 25.39833 | 54.73378 | 14931 ft | 309 kts | 286° |
| 2026-04-26 16:50 | 25.40491 | 54.71069 | 15635 ft | 321 kts | 285° |
| 2026-04-26 16:50 | 25.41181 | 54.68642 | 16168 ft | 344 kts | 285° |
| 2026-04-26 16:50 | 25.41929 | 54.66009 | 16375 ft | 375 kts | 285° |
| 2026-04-26 16:51 | 25.42739 | 54.63160 | 16747 ft | 397 kts | 286° |
| 2026-04-26 16:51 | 25.43776 | 54.60301 | 17510 ft | 408 kts | 296° |
| 2026-04-26 16:51 | 25.45262 | 54.57589 | 18384 ft | 414 kts | 300° |
| 2026-04-26 16:51 | 25.46846 | 54.54916 | 19269 ft | 416 kts | 301° |
| 2026-04-26 16:52 | 25.48451 | 54.52250 | 20166 ft | 418 kts | 301° |
| 2026-04-26 16:52 | 25.48998 | 54.51339 | 20480 ft | 419 kts | 301° |
| 2026-04-26 16:52 | 25.51675 | 54.46834 | 21896 ft | 424 kts | 300° |
| 2026-04-26 16:52 | 25.53285 | 54.44081 | 22711 ft | 428 kts | 299° |
| 2026-04-26 16:53 | 25.54899 | 54.41298 | 23466 ft | 432 kts | 299° |
| 2026-04-26 16:53 | 25.56521 | 54.38485 | 24091 ft | 436 kts | 299° |
| 2026-04-26 16:53 | 25.58154 | 54.35642 | 24699 ft | 439 kts | 298° |
| 2026-04-26 16:53 | 25.59799 | 54.32773 | 25285 ft | 443 kts | 298° |
| 2026-04-26 16:54 | 25.61457 | 54.29878 | 25872 ft | 447 kts | 298° |
| 2026-04-26 16:54 | 25.63132 | 54.26950 | 26465 ft | 451 kts | 298° |
| 2026-04-26 16:54 | 25.64814 | 54.24010 | 27057 ft | 454 kts | 298° |
| 2026-04-26 16:54 | 25.66509 | 54.21048 | 27623 ft | 458 kts | 298° |
| 2026-04-26 16:55 | 25.68217 | 54.18058 | 28168 ft | 461 kts | 298° |
| 2026-04-26 16:55 | 25.69940 | 54.15042 | 28690 ft | 464 kts | 298° |
| 2026-04-26 16:55 | 25.71676 | 54.12001 | 29180 ft | 468 kts | 298° |
| 2026-04-26 16:55 | 25.73422 | 54.08941 | 29637 ft | 471 kts | 298° |
| 2026-04-26 16:56 | 25.76936 | 54.02779 | 30642 ft | 471 kts | 298° |
| 2026-04-26 16:56 | 25.78685 | 53.99715 | 31271 ft | 468 kts | 298° |
| 2026-04-26 16:56 | 25.79834 | 53.97698 | 31686 ft | 466 kts | 298° |
| 2026-04-26 16:57 | 25.81558 | 53.94671 | 32296 ft | 463 kts | 298° |
| 2026-04-26 16:57 | 25.83854 | 53.90633 | 33070 ft | 461 kts | 298° |
| 2026-04-26 16:57 | 25.86682 | 53.85652 | 33979 ft | 458 kts | 298° |
| 2026-04-26 16:58 | 25.88375 | 53.82669 | 34515 ft | 454 kts | 298° |
| 2026-04-26 16:58 | 25.89483 | 53.80714 | 34922 ft | 450 kts | 299° |
| 2026-04-26 16:58 | 25.93314 | 53.73956 | 36387 ft | 436 kts | 299° |
| 2026-04-26 16:59 | 25.94924 | 53.71110 | 36910 ft | 433 kts | 300° |
| 2026-04-26 16:59 | 25.98099 | 53.65492 | 37864 ft | 427 kts | 300° |
| 2026-04-26 17:00 | 26.01266 | 53.59879 | 37882 ft | 428 kts | 300° |
| 2026-04-26 17:00 | 26.05984 | 53.51511 | 37893 ft | 424 kts | 300° |
| 2026-04-26 17:01 | 26.09110 | 53.45958 | 37888 ft | 423 kts | 300° |
| 2026-04-26 17:01 | 26.12230 | 53.40408 | 37893 ft | 423 kts | 300° |
| 2026-04-26 17:02 | 26.15349 | 53.34855 | 37893 ft | 423 kts | 300° |
| 2026-04-26 17:02 | 26.18469 | 53.29291 | 37897 ft | 424 kts | 300° |
| 2026-04-26 17:03 | 26.21596 | 53.23710 | 37894 ft | 425 kts | 300° |
| 2026-04-26 17:03 | 26.24724 | 53.18121 | 37892 ft | 426 kts | 300° |
| 2026-04-26 17:04 | 26.27853 | 53.12521 | 37889 ft | 426 kts | 300° |
| 2026-04-26 17:04 | 26.30965 | 53.06946 | 37896 ft | 426 kts | 300° |
| 2026-04-26 17:05 | 26.34113 | 53.01299 | 37898 ft | 426 kts | 300° |
| 2026-04-26 17:05 | 26.37241 | 52.95682 | 37898 ft | 426 kts | 299° |
| 2026-04-26 17:06 | 26.40368 | 52.90058 | 37899 ft | 426 kts | 299° |
| 2026-04-26 17:06 | 26.43469 | 52.84475 | 37900 ft | 426 kts | 299° |
| 2026-04-26 17:07 | 26.46586 | 52.78857 | 37899 ft | 426 kts | 299° |
| 2026-04-26 17:07 | 26.49702 | 52.73232 | 37906 ft | 426 kts | 299° |
| 2026-04-26 17:08 | 26.52811 | 52.67614 | 37898 ft | 425 kts | 299° |
| 2026-04-26 17:08 | 26.55919 | 52.61989 | 37893 ft | 425 kts | 299° |
| 2026-04-26 17:09 | 26.58499 | 52.57316 | 37897 ft | 425 kts | 299° |
| 2026-04-26 17:09 | 26.62122 | 52.50744 | 37906 ft | 425 kts | 299° |
| 2026-04-26 17:10 | 26.65216 | 52.45124 | 37909 ft | 424 kts | 299° |
| 2026-04-26 17:10 | 26.68306 | 52.39506 | 37909 ft | 424 kts | 299° |
| 2026-04-26 17:11 | 26.71390 | 52.33890 | 37910 ft | 424 kts | 298° |
| 2026-04-26 17:11 | 26.74469 | 52.28276 | 37914 ft | 423 kts | 298° |
| 2026-04-26 17:12 | 26.79080 | 52.19856 | 37912 ft | 423 kts | 298° |
| 2026-04-26 17:13 | 26.83679 | 52.11442 | 37918 ft | 422 kts | 298° |
| 2026-04-26 17:14 | 26.88275 | 52.03019 | 37921 ft | 422 kts | 298° |
| 2026-04-26 17:14 | 26.92868 | 51.94584 | 37919 ft | 422 kts | 298° |
| 2026-04-26 17:15 | 26.97430 | 51.86190 | 37921 ft | 422 kts | 298° |
| 2026-04-26 17:16 | 27.00485 | 51.80559 | 37922 ft | 422 kts | 298° |
| 2026-04-26 17:16 | 27.03533 | 51.74936 | 37921 ft | 422 kts | 298° |
| 2026-04-26 17:17 | 27.06581 | 51.69305 | 37930 ft | 422 kts | 298° |
| 2026-04-26 17:17 | 27.09620 | 51.63683 | 37921 ft | 421 kts | 298° |
| 2026-04-26 17:18 | 27.12657 | 51.58057 | 37924 ft | 421 kts | 298° |
| 2026-04-26 17:18 | 27.15687 | 51.52438 | 37927 ft | 421 kts | 297° |
| 2026-04-26 17:19 | 27.20225 | 51.44008 | 37930 ft | 420 kts | 297° |
| 2026-04-26 17:19 | 27.23249 | 51.38381 | 37932 ft | 420 kts | 297° |
| 2026-04-26 17:20 | 27.25762 | 51.33700 | 37917 ft | 420 kts | 296° |
| 2026-04-26 17:20 | 27.29291 | 51.27118 | 37934 ft | 420 kts | 297° |
| 2026-04-26 17:21 | 27.32306 | 51.21485 | 37940 ft | 421 kts | 296° |
| 2026-04-26 17:21 | 27.35323 | 51.15842 | 37935 ft | 421 kts | 296° |
| 2026-04-26 17:22 | 27.38340 | 51.10192 | 37937 ft | 421 kts | 296° |
| 2026-04-26 17:22 | 27.41356 | 51.04538 | 37945 ft | 421 kts | 296° |
| 2026-04-26 17:23 | 27.44368 | 50.98881 | 37939 ft | 421 kts | 296° |
| 2026-04-26 17:23 | 27.47381 | 50.93218 | 37944 ft | 421 kts | 296° |
| 2026-04-26 17:24 | 27.50384 | 50.87565 | 37939 ft | 421 kts | 296° |
| 2026-04-26 17:24 | 27.53385 | 50.81908 | 37941 ft | 420 kts | 296° |
| 2026-04-26 17:25 | 27.56380 | 50.76256 | 37940 ft | 420 kts | 296° |
| 2026-04-26 17:25 | 27.59371 | 50.70603 | 37944 ft | 420 kts | 296° |
| 2026-04-26 17:26 | 27.62356 | 50.64953 | 37942 ft | 419 kts | 296° |
| 2026-04-26 17:26 | 27.65342 | 50.59295 | 37944 ft | 419 kts | 296° |
| 2026-04-26 17:27 | 27.68298 | 50.53687 | 37941 ft | 419 kts | 296° |
| 2026-04-26 17:27 | 27.71270 | 50.48041 | 37939 ft | 419 kts | 296° |
| 2026-04-26 17:28 | 27.74244 | 50.42384 | 37942 ft | 419 kts | 296° |
| 2026-04-26 17:28 | 27.77209 | 50.36736 | 37943 ft | 419 kts | 296° |
| 2026-04-26 17:29 | 27.79696 | 50.31992 | 37941 ft | 418 kts | 296° |
| 2026-04-26 17:29 | 27.83136 | 50.25423 | 37949 ft | 418 kts | 296° |
| 2026-04-26 17:30 | 27.86100 | 50.19756 | 37937 ft | 418 kts | 295° |
| 2026-04-26 17:30 | 27.89055 | 50.14097 | 37933 ft | 418 kts | 295° |
| 2026-04-26 17:31 | 27.92010 | 50.08429 | 37943 ft | 418 kts | 295° |
| 2026-04-26 17:31 | 27.94962 | 50.02762 | 37942 ft | 418 kts | 295° |
| 2026-04-26 17:32 | 27.97911 | 49.97092 | 37949 ft | 418 kts | 295° |
| 2026-04-26 17:32 | 28.00856 | 49.91422 | 37943 ft | 418 kts | 295° |
| 2026-04-26 17:33 | 28.03797 | 49.85752 | 37942 ft | 418 kts | 295° |
| 2026-04-26 17:34 | 28.08208 | 49.77235 | 37940 ft | 417 kts | 295° |
| 2026-04-26 17:34 | 28.11140 | 49.71564 | 37937 ft | 417 kts | 295° |
| 2026-04-26 17:35 | 28.14067 | 49.65895 | 37943 ft | 417 kts | 295° |
| 2026-04-26 17:35 | 28.16992 | 49.60222 | 37937 ft | 417 kts | 295° |
| 2026-04-26 17:36 | 28.19909 | 49.54558 | 37914 ft | 414 kts | 295° |
| 2026-04-26 17:36 | 28.21357 | 49.51745 | 37648 ft | 413 kts | 295° |
| 2026-04-26 17:36 | 28.22807 | 49.48924 | 37236 ft | 415 kts | 295° |
| 2026-04-26 17:36 | 28.24262 | 49.46090 | 36792 ft | 417 kts | 295° |
| 2026-04-26 17:37 | 28.25721 | 49.43244 | 36358 ft | 419 kts | 295° |
| 2026-04-26 17:37 | 28.27184 | 49.40391 | 35923 ft | 420 kts | 295° |
| 2026-04-26 17:37 | 28.28656 | 49.37519 | 35501 ft | 421 kts | 295° |
| 2026-04-26 17:38 | 28.31608 | 49.31756 | 34634 ft | 423 kts | 295° |
| 2026-04-26 17:38 | 28.33089 | 49.28861 | 34175 ft | 425 kts | 295° |
| 2026-04-26 17:38 | 28.34573 | 49.25958 | 33674 ft | 426 kts | 295° |
| 2026-04-26 17:38 | 28.36064 | 49.23038 | 32778 ft | 429 kts | 295° |
| 2026-04-26 17:39 | 28.37561 | 49.20107 | 31825 ft | 429 kts | 295° |
| 2026-04-26 17:39 | 28.39037 | 49.17215 | 31039 ft | 428 kts | 295° |
| 2026-04-26 17:39 | 28.40524 | 49.14301 | 30334 ft | 425 kts | 295° |
| 2026-04-26 17:39 | 28.42002 | 49.11403 | 29558 ft | 423 kts | 295° |
| 2026-04-26 17:40 | 28.43473 | 49.08517 | 28774 ft | 420 kts | 295° |
| 2026-04-26 17:40 | 28.43966 | 49.07548 | 28528 ft | 419 kts | 295° |
| 2026-04-26 17:40 | 28.46376 | 49.02811 | 27366 ft | 414 kts | 295° |
| 2026-04-26 17:40 | 28.47811 | 48.99988 | 26683 ft | 411 kts | 295° |
| 2026-04-26 17:41 | 28.49233 | 48.97187 | 26028 ft | 408 kts | 295° |
| 2026-04-26 17:41 | 28.50642 | 48.94410 | 25361 ft | 406 kts | 295° |
| 2026-04-26 17:41 | 28.52048 | 48.91636 | 24690 ft | 404 kts | 295° |
| 2026-04-26 17:41 | 28.53449 | 48.88868 | 24019 ft | 403 kts | 295° |
| 2026-04-26 17:42 | 28.54835 | 48.86130 | 23335 ft | 402 kts | 295° |
| 2026-04-26 17:42 | 28.56230 | 48.83373 | 22573 ft | 400 kts | 295° |
| 2026-04-26 17:42 | 28.57619 | 48.80624 | 21895 ft | 397 kts | 295° |
| 2026-04-26 17:42 | 28.58988 | 48.77916 | 21239 ft | 394 kts | 295° |
| 2026-04-26 17:43 | 28.60347 | 48.75226 | 20607 ft | 391 kts | 295° |
| 2026-04-26 17:43 | 28.61694 | 48.72557 | 19968 ft | 388 kts | 296° |
| 2026-04-26 17:43 | 28.62579 | 48.70802 | 19561 ft | 387 kts | 296° |
| 2026-04-26 17:43 | 28.63919 | 48.68142 | 18941 ft | 385 kts | 296° |
| 2026-04-26 17:44 | 28.65248 | 48.65505 | 18311 ft | 383 kts | 296° |
| 2026-04-26 17:44 | 28.66569 | 48.62879 | 17612 ft | 382 kts | 297° |
| 2026-04-26 17:44 | 28.67887 | 48.60260 | 16968 ft | 380 kts | 297° |
| 2026-04-26 17:44 | 28.69193 | 48.57663 | 16346 ft | 377 kts | 297° |
| 2026-04-26 17:45 | 28.70494 | 48.55074 | 15726 ft | 375 kts | 297° |
| 2026-04-26 17:45 | 28.71789 | 48.52495 | 14971 ft | 376 kts | 297° |
| 2026-04-26 17:45 | 28.73088 | 48.49906 | 14220 ft | 377 kts | 298° |
| 2026-04-26 17:45 | 28.74422 | 48.47335 | 13459 ft | 378 kts | 300° |
| 2026-04-26 17:46 | 28.75838 | 48.44807 | 12657 ft | 379 kts | 301° |
| 2026-04-26 17:46 | 28.77284 | 48.42295 | 11867 ft | 379 kts | 302° |
| 2026-04-26 17:46 | 28.78736 | 48.39779 | 11094 ft | 378 kts | 302° |
| 2026-04-26 17:46 | 28.80169 | 48.37284 | 10347 ft | 378 kts | 301° |
| 2026-04-26 17:47 | 28.81602 | 48.34777 | 9585 ft | 377 kts | 301° |
| 2026-04-26 17:47 | 28.82543 | 48.33124 | 9068 ft | 376 kts | 301° |
| 2026-04-26 17:47 | 28.84432 | 48.29796 | 8352 ft | 365 kts | 301° |
| 2026-04-26 17:47 | 28.85729 | 48.27510 | 7890 ft | 327 kts | 301° |
| 2026-04-26 17:48 | 28.86925 | 48.25399 | 7116 ft | 308 kts | 301° |
| 2026-04-26 17:48 | 28.88061 | 48.23387 | 6378 ft | 296 kts | 301° |
| 2026-04-26 17:48 | 28.89162 | 48.21435 | 5603 ft | 290 kts | 300° |
| 2026-04-26 17:48 | 28.90259 | 48.19491 | 4836 ft | 293 kts | 300° |
| 2026-04-26 17:49 | 28.91366 | 48.17527 | 4077 ft | 296 kts | 300° |
| 2026-04-26 17:49 | 28.92482 | 48.15546 | 3469 ft | 298 kts | 300° |
| 2026-04-26 17:49 | 28.93610 | 48.13543 | 3262 ft | 300 kts | 300° |
| 2026-04-26 17:49 | 28.94732 | 48.11550 | 3081 ft | 299 kts | 300° |
| 2026-04-26 17:50 | 28.95848 | 48.09565 | 3009 ft | 295 kts | 300° |
| 2026-04-26 17:50 | 28.96958 | 48.07589 | 3002 ft | 297 kts | 300° |
| 2026-04-26 17:50 | 28.98079 | 48.05593 | 2996 ft | 297 kts | 300° |
| 2026-04-26 17:50 | 28.99184 | 48.03627 | 2998 ft | 298 kts | 300° |
| 2026-04-26 17:51 | 29.00327 | 48.01664 | 3005 ft | 299 kts | 306° |
| 2026-04-26 17:51 | 29.01863 | 48.00047 | 3004 ft | 303 kts | 320° |
| 2026-04-26 17:51 | 29.03622 | 47.98606 | 3014 ft | 312 kts | 323° |
| 2026-04-26 17:51 | 29.05382 | 47.97222 | 2990 ft | 301 kts | 323° |
| 2026-04-26 17:52 | 29.07071 | 47.95913 | 2987 ft | 285 kts | 323° |
| 2026-04-26 17:52 | 29.08675 | 47.94686 | 3004 ft | 268 kts | 323° |
| 2026-04-26 17:52 | 29.10181 | 47.93546 | 2996 ft | 252 kts | 323° |
| 2026-04-26 17:52 | 29.11584 | 47.92493 | 2994 ft | 232 kts | 323° |
| 2026-04-26 17:53 | 29.12894 | 47.91518 | 2985 ft | 221 kts | 323° |
| 2026-04-26 17:53 | 29.14178 | 47.90562 | 2991 ft | 219 kts | 323° |
| 2026-04-26 17:53 | 29.15460 | 47.89609 | 2999 ft | 221 kts | 323° |
| 2026-04-26 17:54 | 29.18050 | 47.87690 | 3010 ft | 224 kts | 323° |
| 2026-04-26 17:54 | 29.19361 | 47.86716 | 3008 ft | 225 kts | 323° |
| 2026-04-26 17:54 | 29.20672 | 47.85741 | 2999 ft | 224 kts | 323° |
| 2026-04-26 17:54 | 29.21975 | 47.84774 | 2996 ft | 223 kts | 323° |
| 2026-04-26 17:55 | 29.23273 | 47.83813 | 2996 ft | 221 kts | 323° |
| 2026-04-26 17:55 | 29.24564 | 47.82859 | 2991 ft | 220 kts | 323° |
| 2026-04-26 17:55 | 29.25846 | 47.81912 | 2994 ft | 219 kts | 323° |
| 2026-04-26 17:55 | 29.27121 | 47.80970 | 3000 ft | 218 kts | 323° |
| 2026-04-26 17:56 | 29.28396 | 47.80026 | 3004 ft | 218 kts | 324° |
| 2026-04-26 17:56 | 29.30948 | 47.78124 | 3002 ft | 219 kts | 324° |
| 2026-04-26 17:57 | 29.33848 | 47.77620 | 2532 ft | 225 kts | 24° |
| 2026-04-26 17:57 | 29.35013 | 47.78765 | 2355 ft | 220 kts | 57° |
| 2026-04-26 17:57 | 29.35801 | 47.80278 | 2171 ft | 221 kts | 63° |
| 2026-04-26 17:57 | 29.36529 | 47.81803 | 2065 ft | 217 kts | 63° |
| 2026-04-26 17:58 | 29.38687 | 47.86310 | 1685 ft | 213 kts | 64° |
| 2026-04-26 17:59 | 29.38854 | 47.89412 | 1539 ft | 204 kts | 119° |
| 2026-04-26 17:59 | 29.38140 | 47.90824 | 1513 ft | 204 kts | 123° |
| 2026-04-26 17:59 | 29.37404 | 47.92203 | 1501 ft | 200 kts | 123° |
| 2026-04-26 17:59 | 29.36672 | 47.93540 | 1489 ft | 197 kts | 123° |
| 2026-04-26 18:00 | 29.35837 | 47.94777 | 1476 ft | 199 kts | 146° |
| 2026-04-26 18:00 | 29.34530 | 47.95272 | 1519 ft | 202 kts | 166° |
| 2026-04-26 18:00 | 29.33312 | 47.96073 | 1501 ft | 207 kts | 132° |
| 2026-04-26 18:00 | 29.32747 | 47.97549 | 1484 ft | 207 kts | 97° |
| 2026-04-26 18:01 | 29.33066 | 47.99131 | 1497 ft | 209 kts | 61° |
| 2026-04-26 18:01 | 29.34162 | 48.00231 | 1510 ft | 217 kts | 25° |
| 2026-04-26 18:01 | 29.35657 | 48.00485 | 1509 ft | 220 kts | 358° |
| 2026-04-26 18:01 | 29.37158 | 48.00334 | 1481 ft | 210 kts | 354° |
| 2026-04-26 18:02 | 29.38569 | 48.00149 | 1485 ft | 198 kts | 354° |
| 2026-04-26 18:02 | 29.39454 | 48.00029 | 1483 ft | 190 kts | 354° |
| 2026-04-26 18:02 | 29.41184 | 47.99789 | 1504 ft | 187 kts | 353° |
| 2026-04-26 18:02 | 29.42482 | 47.99624 | 1512 ft | 188 kts | 353° |
| 2026-04-26 18:03 | 29.43785 | 47.99466 | 1515 ft | 189 kts | 354° |
| 2026-04-26 18:03 | 29.45090 | 47.99312 | 1499 ft | 188 kts | 354° |
| 2026-04-26 18:03 | 29.46385 | 47.99145 | 1501 ft | 188 kts | 354° |
| 2026-04-26 18:03 | 29.47687 | 47.98969 | 1503 ft | 188 kts | 354° |
| 2026-04-26 18:04 | 29.48981 | 47.98796 | 1506 ft | 188 kts | 353° |
| 2026-04-26 18:04 | 29.50288 | 47.98622 | 1499 ft | 188 kts | 354° |
| 2026-04-26 18:04 | 29.51582 | 47.98430 | 1512 ft | 188 kts | 354° |
| 2026-04-26 18:05 | 29.54203 | 47.98069 | 1516 ft | 192 kts | 354° |
| 2026-04-26 18:05 | 29.55535 | 47.97892 | 1503 ft | 192 kts | 354° |
| 2026-04-26 18:05 | 29.56848 | 47.97672 | 1494 ft | 189 kts | 344° |
| 2026-04-26 18:05 | 29.57894 | 47.96857 | 1502 ft | 182 kts | 302° |
| 2026-04-26 18:06 | 29.58207 | 47.95484 | 1526 ft | 181 kts | 260° |
| 2026-04-26 18:06 | 29.57685 | 47.94217 | 1508 ft | 177 kts | 225° |
| 2026-04-26 18:06 | 29.56847 | 47.93196 | 1519 ft | 175 kts | 222° |
| 2026-04-26 18:06 | 29.55851 | 47.92490 | 1504 ft | 169 kts | 195° |
| 2026-04-26 18:07 | 29.54718 | 47.92150 | 1515 ft | 170 kts | 193° |
| 2026-04-26 18:07 | 29.53554 | 47.91790 | 1508 ft | 172 kts | 193° |
| 2026-04-26 18:07 | 29.52408 | 47.91443 | 1503 ft | 173 kts | 193° |
| 2026-04-26 18:07 | 29.51624 | 47.91201 | 1514 ft | 172 kts | 193° |
| 2026-04-26 18:08 | 29.50075 | 47.90717 | 1501 ft | 172 kts | 194° |
| 2026-04-26 18:08 | 29.48933 | 47.90357 | 1511 ft | 173 kts | 193° |
| 2026-04-26 18:08 | 29.47775 | 47.89991 | 1490 ft | 173 kts | 192° |
| 2026-04-26 18:08 | 29.46603 | 47.89728 | 1503 ft | 171 kts | 187° |
| 2026-04-26 18:09 | 29.45433 | 47.89506 | 1506 ft | 170 kts | 188° |
| 2026-04-26 18:09 | 29.44277 | 47.89226 | 1510 ft | 170 kts | 191° |
| 2026-04-26 18:09 | 29.43112 | 47.88987 | 1511 ft | 170 kts | 185° |
| 2026-04-26 18:09 | 29.41932 | 47.88904 | 1510 ft | 170 kts | 179° |
| 2026-04-26 18:10 | 29.40748 | 47.88970 | 1514 ft | 171 kts | 174° |
| 2026-04-26 18:10 | 29.39562 | 47.89159 | 1520 ft | 173 kts | 170° |
| 2026-04-26 18:10 | 29.38383 | 47.89444 | 1509 ft | 173 kts | 166° |
| 2026-04-26 18:10 | 29.37226 | 47.89803 | 1494 ft | 170 kts | 163° |
| 2026-04-26 18:11 | 29.36106 | 47.90212 | 1502 ft | 169 kts | 161° |
| 2026-04-26 18:11 | 29.34996 | 47.90659 | 1499 ft | 169 kts | 160° |
| 2026-04-26 18:11 | 29.33901 | 47.91135 | 1487 ft | 166 kts | 158° |
| 2026-04-26 18:11 | 29.32883 | 47.91604 | 1483 ft | 148 kts | 158° |
| 2026-04-26 18:12 | 29.31929 | 47.92062 | 1543 ft | 170 kts | 157° |
| 2026-04-26 18:12 | 29.30827 | 47.92608 | 1538 ft | 171 kts | 156° |
| 2026-04-26 18:12 | 29.29751 | 47.93157 | 1497 ft | 165 kts | 156° |
| 2026-04-26 18:12 | 29.28767 | 47.93667 | 1456 ft | 148 kts | 156° |
| 2026-04-26 18:13 | 29.27857 | 47.94145 | 1152 ft | 140 kts | 155° |
| 2026-04-26 18:13 | 29.27005 | 47.94605 | 881 ft | 131 kts | 153° |
| 2026-04-26 18:13 | 29.26199 | 47.95029 | 651 ft | 125 kts | 153° |
| 2026-04-26 18:13 | 29.25683 | 47.95322 | 512 ft | 125 kts | 150° |
| 2026-04-26 18:14 | 29.24566 | 47.95874 | 220 ft | 132 kts | 156° |
| 2026-04-26 18:14 | 29.23750 | 47.96304 | 180 ft | 131 kts | 153° |
| 2026-04-26 18:14 | 29.22973 | 47.96725 | 161 ft | 105 kts | 154° |
| 2026-04-26 18:14 | 29.22449 | 47.97005 | 166 ft | 64 kts | 156° |
| 2026-04-26 18:15 | 29.22107 | 47.97180 | 171 ft | 36 kts | 154° |
| 2026-04-26 18:15 | 29.21978 | 47.97317 | 172 ft | 0 kts | 123° |
| 2026-04-26 18:15 | 29.21974 | 47.97322 | 174 ft | 2 kts | 123° |
| 2026-04-26 18:15 | 29.21966 | 47.97337 | 175 ft | 3 kts | 123° |
| 2026-04-26 18:16 | 29.21955 | 47.97362 | 173 ft | 4 kts | 110° |
| 2026-04-26 18:16 | 29.21936 | 47.97428 | 174 ft | 5 kts | 98° |
| 2026-04-26 18:16 | 29.21940 | 47.97467 | 174 ft | 5 kts | 71° |
| 2026-04-26 18:17 | 29.21964 | 47.97495 | 174 ft | 0 kts | 37° |
| 2026-04-26 18:17 | 29.21982 | 47.97494 | 174 ft | 6 kts | 346° |
| 2026-04-26 18:17 | 29.22086 | 47.97444 | 173 ft | 23 kts | 334° |
| 2026-04-26 18:18 | 29.22233 | 47.97362 | 171 ft | 24 kts | 335° |
| 2026-04-26 18:18 | 29.22385 | 47.97281 | 169 ft | 24 kts | 335° |
| 2026-04-26 18:18 | 29.22538 | 47.97200 | 167 ft | 24 kts | 335° |
| 2026-04-26 18:18 | 29.22691 | 47.97121 | 165 ft | 24 kts | 335° |
| 2026-04-26 18:19 | 29.22844 | 47.97041 | 164 ft | 24 kts | 336° |
| 2026-04-26 18:19 | 29.22996 | 47.96958 | 162 ft | 24 kts | 334° |
| 2026-04-26 18:19 | 29.23147 | 47.96875 | 160 ft | 24 kts | 334° |
| 2026-04-26 18:19 | 29.23302 | 47.96799 | 158 ft | 24 kts | 335° |
| 2026-04-26 18:20 | 29.23411 | 47.96742 | 157 ft | 13 kts | 335° |
| 2026-04-26 18:20 | 29.23431 | 47.96731 | 156 ft | 2 kts | 335° |
| 2026-04-26 18:20 | 29.23543 | 47.96671 | 155 ft | 34 kts | 334° |
| 2026-04-26 18:20 | 29.23621 | 47.96628 | 154 ft | 37 kts | 335° |
| 2026-04-26 18:21 | 29.24015 | 47.96420 | 149 ft | 38 kts | 335° |
| 2026-04-26 18:21 | 29.24253 | 47.96289 | 147 ft | 37 kts | 336° |
| 2026-04-26 18:21 | 29.24378 | 47.96227 | 148 ft | 0 kts | 353° |
| 2026-04-26 18:21 | 29.24385 | 47.96226 | 148 ft | 6 kts | 357° |
| 2026-04-26 18:22 | 29.24424 | 47.96244 | 148 ft | 1 kts | 34° |
| 2026-04-26 18:22 | 29.24437 | 47.96273 | 148 ft | 12 kts | 61° |
| 2026-04-26 18:22 | 29.24447 | 47.96295 | 148 ft | 0 kts | 63° |